createdAt,value
2023-02-06T00:01:06.515Z,95.43
2023-02-06T00:03:35.761Z,91.45
2023-02-06T00:06:03.709Z,96.55
2023-02-06T00:08:31.522Z,97.32
2023-02-06T00:10:59.395Z,93.90
2023-02-06T00:13:27.382Z,95.78
2023-02-06T00:15:55.283Z,92.72
2023-02-06T00:18:23.149Z,95.88
2023-02-06T00:20:52.424Z,94.57
2023-02-06T00:23:20.319Z,94.97
2023-02-06T00:25:48.153Z,94.20
2023-02-06T00:28:16.040Z,94.55
2023-02-06T00:30:47.465Z,94.60
2023-02-06T00:33:15.419Z,96.35
2023-02-06T00:35:43.338Z,95.85
2023-02-06T00:38:12.846Z,99.50
2023-02-06T00:40:40.684Z,99.72
2023-02-06T00:43:08.516Z,98.70
2023-02-06T00:45:36.679Z,96.30
2023-02-06T00:48:04.984Z,91.32
2023-02-06T00:50:32.821Z,90.78
2023-02-06T00:53:00.706Z,96.63
2023-02-06T00:55:29.948Z,96.60
2023-02-06T00:57:57.805Z,96.68
2023-02-06T01:00:25.740Z,95.97
2023-02-06T01:02:53.617Z,95.72
2023-02-06T01:05:24.446Z,99.03
2023-02-06T01:07:52.476Z,98.13
2023-02-06T01:10:20.607Z,92.90
2023-02-06T01:12:49.812Z,98.65
2023-02-06T01:15:17.701Z,97.50
2023-02-06T01:17:45.594Z,94.80
2023-02-06T01:20:14.732Z,96.50
2023-02-06T01:22:42.863Z,92.90
2023-02-06T01:25:12.976Z,97.05
2023-02-06T01:27:40.827Z,91.15
2023-02-06T01:30:12.066Z,91.90
2023-02-06T01:32:40.528Z,96.95
2023-02-06T01:35:09.677Z,93.93
2023-02-06T01:37:38.561Z,94.30
2023-02-06T01:40:10.323Z,97.82
2023-02-06T01:42:38.638Z,98.90
2023-02-06T01:45:43.449Z,97.00
2023-02-06T01:48:16.196Z,91.03
2023-02-06T01:50:47.726Z,100.25
2023-02-06T01:53:16.499Z,98.43
2023-02-06T01:55:46.356Z,96.28
2023-02-06T01:58:18.914Z,94.97
2023-02-06T02:00:47.207Z,94.57
2023-02-06T02:03:16.686Z,97.95
2023-02-06T02:05:44.771Z,92.13
2023-02-06T02:08:16.182Z,93.72
2023-02-06T02:10:44.413Z,93.47
2023-02-06T02:13:12.324Z,94.93
2023-02-06T02:15:43.441Z,96.60
2023-02-06T02:18:26.866Z,93.88
2023-02-06T02:21:24.466Z,93.70
2023-02-06T02:23:56.407Z,95.70
2023-02-06T02:26:58.648Z,93.75
2023-02-06T02:29:38.334Z,96.90
2023-02-06T02:32:34.135Z,93.32
2023-02-06T02:35:11.928Z,94.55
2023-02-06T02:37:50.100Z,95.38
2023-02-06T02:40:25.266Z,93.45
2023-02-06T02:43:02.961Z,95.13
2023-02-06T02:45:38.106Z,97.95
2023-02-06T02:48:08.025Z,97.05
2023-02-06T02:50:37.826Z,97.90
2023-02-06T02:53:06.651Z,91.30
2023-02-06T02:55:35.072Z,93.95
2023-02-06T02:58:07.871Z,100.00
2023-02-06T03:00:38.395Z,99.85
2023-02-06T03:03:08.148Z,96.20
2023-02-06T03:05:41.849Z,96.95
2023-02-06T03:08:17.244Z,98.75
2023-02-06T03:10:49.538Z,96.80
2023-02-06T03:13:21.919Z,99.05
2023-02-06T03:15:56.070Z,99.60
2023-02-06T03:18:26.687Z,98.35
2023-02-06T03:20:56.097Z,98.25
2023-02-06T03:23:26.222Z,98.05
2023-02-06T03:25:56.220Z,100.07
2023-02-06T03:28:27.692Z,97.82
2023-02-06T03:30:57.550Z,95.20
2023-02-06T03:33:32.196Z,91.65
2023-02-06T03:36:01.543Z,93.05
2023-02-06T03:38:29.448Z,97.97
2023-02-06T03:40:59.260Z,96.68
2023-02-06T03:43:28.679Z,93.57
2023-02-06T03:46:00.162Z,97.15
2023-02-06T03:48:31.439Z,96.80
2023-02-06T03:51:02.514Z,97.78
2023-02-06T03:53:31.187Z,99.68
2023-02-06T03:56:02.850Z,99.07
2023-02-06T03:58:30.914Z,97.70
2023-02-06T04:00:59.042Z,100.05
2023-02-06T04:03:28.023Z,96.80
2023-02-06T04:05:55.868Z,98.63
2023-02-06T04:08:25.145Z,98.55
2023-02-06T04:10:53.000Z,101.68
2023-02-06T04:13:20.934Z,98.55
2023-02-06T04:15:48.897Z,97.80
2023-02-06T04:18:16.754Z,97.88
2023-02-06T04:20:44.597Z,97.18
2023-02-06T04:23:12.490Z,100.75
2023-02-06T04:25:41.749Z,99.22
2023-02-06T04:28:09.860Z,101.68
2023-02-06T04:30:37.806Z,99.57
2023-02-06T04:33:06.272Z,105.00
2023-02-06T04:35:34.401Z,104.47
2023-02-06T04:38:02.485Z,99.75
2023-02-06T04:40:30.304Z,103.07
2023-02-06T04:42:59.550Z,105.38
2023-02-06T04:45:27.472Z,104.20
2023-02-06T04:47:55.333Z,105.57
2023-02-06T04:50:23.259Z,106.43
2023-02-06T04:52:51.269Z,105.03
2023-02-06T04:55:19.176Z,104.63
2023-02-06T04:57:47.024Z,107.95
2023-02-06T05:00:17.512Z,105.82
2023-02-06T05:02:45.451Z,106.25
2023-02-06T05:05:13.447Z,103.55
2023-02-06T05:07:41.259Z,102.35
2023-02-06T05:10:09.967Z,100.40
2023-02-06T05:12:37.869Z,101.97
2023-02-06T05:15:06.164Z,104.93
2023-02-06T05:17:35.444Z,111.07
2023-02-06T05:20:03.687Z,103.68
2023-02-06T05:22:31.589Z,104.55
2023-02-06T05:24:59.547Z,111.63
2023-02-06T05:27:27.478Z,109.40
2023-02-06T05:29:56.795Z,107.65
2023-02-06T05:32:24.623Z,111.78
2023-02-06T05:34:53.813Z,106.00
2023-02-06T05:37:21.653Z,106.07
2023-02-06T05:39:49.529Z,111.57
2023-02-06T05:42:17.383Z,111.60
2023-02-06T05:44:46.905Z,107.68
2023-02-06T05:47:14.771Z,110.45
2023-02-06T05:49:44.016Z,110.20
2023-02-06T05:52:13.354Z,104.07
2023-02-06T05:54:41.219Z,106.60
2023-02-06T05:57:09.103Z,111.13
2023-02-06T05:59:37.005Z,108.22
2023-02-06T06:02:05.183Z,107.20
2023-02-06T06:04:33.100Z,109.45
2023-02-06T06:07:01.090Z,109.97
2023-02-06T06:09:30.345Z,112.38
2023-02-06T06:11:58.192Z,113.88
2023-02-06T06:14:26.233Z,106.20
2023-02-06T06:16:54.086Z,106.75
2023-02-06T06:19:21.989Z,110.43
2023-02-06T06:21:49.906Z,106.72
2023-02-06T06:24:17.878Z,112.13
2023-02-06T06:26:47.141Z,113.28
2023-02-06T06:29:17.619Z,109.97
2023-02-06T06:31:45.768Z,106.57
2023-02-06T06:34:13.668Z,108.03
2023-02-06T06:36:41.503Z,104.63
2023-02-06T06:39:09.507Z,107.80
2023-02-06T06:41:37.376Z,107.90
2023-02-06T06:44:06.752Z,105.93
2023-02-06T06:46:34.660Z,105.10
2023-02-06T06:49:02.586Z,102.28
2023-02-06T06:51:30.534Z,100.40
2023-02-06T06:53:58.851Z,105.53
2023-02-06T06:56:26.992Z,105.55
2023-02-06T06:58:55.510Z,107.68
2023-02-06T07:01:24.892Z,109.63
2023-02-06T07:03:52.891Z,105.82
2023-02-06T07:06:20.782Z,106.18
2023-02-06T07:08:48.718Z,113.93
2023-02-06T07:11:16.963Z,110.80
2023-02-06T07:13:44.943Z,113.57
2023-02-06T07:16:13.437Z,104.93
2023-02-06T07:18:43.071Z,109.20
2023-02-06T07:21:11.076Z,106.50
2023-02-06T07:23:39.071Z,109.28
2023-02-06T07:26:06.989Z,108.03
2023-02-06T07:28:35.204Z,108.63
2023-02-06T07:31:03.736Z,106.10
2023-02-06T07:33:31.669Z,107.95
2023-02-06T07:36:03.828Z,106.50
2023-02-06T07:38:32.118Z,107.18
2023-02-06T07:41:02.365Z,106.65
2023-02-06T07:43:30.690Z,108.43
2023-02-06T07:46:00.235Z,104.93
2023-02-06T07:48:28.386Z,116.80
2023-02-06T07:50:56.302Z,115.28
2023-02-06T07:53:25.552Z,112.75
2023-02-06T07:55:53.378Z,107.95
2023-02-06T07:58:21.287Z,112.40
2023-02-06T08:00:49.204Z,107.38
2023-02-06T08:03:17.031Z,111.22
2023-02-06T08:05:44.932Z,108.38
2023-02-06T08:08:12.761Z,109.85
2023-02-06T08:10:42.046Z,115.38
2023-02-06T08:13:09.917Z,116.75
2023-02-06T08:15:38.067Z,114.13
2023-02-06T08:18:06.217Z,108.80
2023-02-06T08:20:34.338Z,108.57
2023-02-06T08:23:02.242Z,106.93
2023-02-06T08:25:30.169Z,106.60
2023-02-06T08:27:59.430Z,108.20
2023-02-06T08:30:27.380Z,109.72
2023-02-06T08:32:55.336Z,115.05
2023-02-06T08:35:23.171Z,114.68
2023-02-06T08:37:51.004Z,115.40
2023-02-06T08:40:21.170Z,110.47
2023-02-06T08:42:51.403Z,110.75
2023-02-06T08:45:20.631Z,115.50
2023-02-06T08:47:48.542Z,116.00
2023-02-06T08:50:17.088Z,114.38
2023-02-06T08:52:44.985Z,113.40
2023-02-06T08:55:12.871Z,111.35
2023-02-06T08:57:40.752Z,116.03
2023-02-06T09:00:10.127Z,117.68
2023-02-06T09:02:39.346Z,115.22
2023-02-06T09:05:07.457Z,115.07
2023-02-06T09:07:35.291Z,118.85
2023-02-06T09:10:03.192Z,116.35
2023-02-06T09:12:31.135Z,117.38
2023-02-06T09:14:59.026Z,117.00
2023-02-06T09:17:27.264Z,113.28
2023-02-06T09:19:56.569Z,117.57
2023-02-06T09:22:24.506Z,118.50
2023-02-06T09:24:52.439Z,120.00
2023-02-06T09:27:20.391Z,118.05
2023-02-06T09:29:48.945Z,120.80
2023-02-06T09:32:16.860Z,119.38
2023-02-06T09:34:44.740Z,119.93
2023-02-06T09:37:13.940Z,120.03
2023-02-06T09:39:41.996Z,120.45
2023-02-06T09:42:14.087Z,121.95
2023-02-06T09:44:44.349Z,121.43
2023-02-06T09:47:19.657Z,122.90
2023-02-06T09:49:49.461Z,116.07
2023-02-06T09:52:31.387Z,120.25
2023-02-06T09:55:04.891Z,115.50
2023-02-06T09:57:40.535Z,116.25
2023-02-06T10:00:17.639Z,117.53
2023-02-06T10:03:09.166Z,112.95
2023-02-06T10:05:46.978Z,115.85
2023-02-06T10:08:21.980Z,115.38
2023-02-06T10:10:52.118Z,112.78
2023-02-06T10:13:23.853Z,118.00
2023-02-06T10:15:54.029Z,114.05
2023-02-06T10:18:27.266Z,118.32
2023-02-06T10:20:58.942Z,119.45
2023-02-06T10:23:32.369Z,117.53
2023-02-06T10:26:17.174Z,113.80
2023-02-06T10:28:46.211Z,113.45
2023-02-06T10:31:47.568Z,122.97
2023-02-06T10:34:26.824Z,120.32
2023-02-06T10:37:06.303Z,122.32
2023-02-06T10:39:46.639Z,122.05
2023-02-06T10:42:21.145Z,123.22
2023-02-06T10:44:53.867Z,125.72
2023-02-06T10:47:29.753Z,127.75
2023-02-06T10:50:01.763Z,127.38
2023-02-06T10:52:32.129Z,124.25
2023-02-06T10:55:05.085Z,123.30
2023-02-06T10:57:33.520Z,124.57
2023-02-06T11:00:02.871Z,123.82
2023-02-06T11:02:40.025Z,130.48
2023-02-06T11:05:10.465Z,127.18
2023-02-06T11:07:41.114Z,123.32
2023-02-06T11:10:14.123Z,127.80
2023-02-06T11:12:43.912Z,127.40
2023-02-06T11:15:21.608Z,131.77
2023-02-06T11:17:50.310Z,126.45
2023-02-06T11:20:22.132Z,127.45
2023-02-06T11:22:53.396Z,126.80
2023-02-06T11:25:33.616Z,125.15
2023-02-06T11:28:02.113Z,127.03
2023-02-06T11:30:33.522Z,128.35
2023-02-06T11:33:05.769Z,129.95
2023-02-06T11:35:38.934Z,129.85
2023-02-06T11:38:13.805Z,129.77
2023-02-06T11:40:43.862Z,123.53
2023-02-06T11:43:20.859Z,127.30
2023-02-06T11:45:52.260Z,128.18
2023-02-06T11:48:36.161Z,128.68
2023-02-06T11:51:04.770Z,128.73
2023-02-06T11:53:32.890Z,129.65
2023-02-06T11:56:05.058Z,127.82
2023-02-06T11:58:34.968Z,130.45
2023-02-06T12:01:05.845Z,131.23
2023-02-06T12:03:36.986Z,129.57
2023-02-06T12:06:09.856Z,128.52
2023-02-06T12:08:45.449Z,129.30
2023-02-06T12:11:19.122Z,125.97
2023-02-06T12:13:50.348Z,126.15
2023-02-06T12:16:18.997Z,124.30
2023-02-06T12:18:50.148Z,126.22
2023-02-06T12:21:24.435Z,124.93
2023-02-06T12:23:54.695Z,128.40
2023-02-06T12:26:26.332Z,122.50
2023-02-06T12:28:59.510Z,124.93
2023-02-06T12:31:33.278Z,124.40
2023-02-06T12:34:10.911Z,122.40
2023-02-06T12:36:50.895Z,117.97
2023-02-06T12:39:21.084Z,122.13
2023-02-06T12:42:02.188Z,121.63
2023-02-06T12:44:33.189Z,120.05
2023-02-06T12:47:04.812Z,121.72
2023-02-06T12:49:37.024Z,122.80
2023-02-06T12:52:10.404Z,123.82
2023-02-06T12:54:43.306Z,122.75
2023-02-06T12:57:16.304Z,121.88
2023-02-06T13:00:09.576Z,119.18
2023-02-06T13:03:02.461Z,121.78
2023-02-06T13:05:34.659Z,125.03
2023-02-06T13:08:06.933Z,120.95
2023-02-06T13:10:35.172Z,122.75
2023-02-06T13:13:05.104Z,125.93
2023-02-06T13:15:37.420Z,125.55
2023-02-06T13:18:36.371Z,125.82
2023-02-06T13:21:20.576Z,128.00
2023-02-06T13:24:15.599Z,128.50
2023-02-06T13:27:20.390Z,127.05
2023-02-06T13:29:51.546Z,128.50
2023-02-06T13:32:47.824Z,127.85
2023-02-06T13:35:29.087Z,128.15
2023-02-06T13:38:28.472Z,128.55
2023-02-06T13:41:18.958Z,127.75
2023-02-06T13:43:50.707Z,128.65
2023-02-06T13:46:21.895Z,127.13
2023-02-06T13:49:06.365Z,128.75
2023-02-06T13:51:50.302Z,127.43
2023-02-06T13:54:39.607Z,127.88
2023-02-06T13:57:32.788Z,129.25
2023-02-06T14:00:02.533Z,129.43
2023-02-06T14:02:40.040Z,130.05
2023-02-06T14:05:12.622Z,128.65
2023-02-06T14:08:01.082Z,127.40
2023-02-06T14:11:19.155Z,126.97
2023-02-06T14:14:01.894Z,123.43
2023-02-06T14:16:38.441Z,128.90
2023-02-06T14:19:13.967Z,130.10
2023-02-06T14:21:54.995Z,127.97
2023-02-06T14:24:44.874Z,129.15
2023-02-06T14:27:29.400Z,128.60
2023-02-06T14:30:06.008Z,120.05
2023-02-06T14:32:42.354Z,128.68
2023-02-06T14:35:29.358Z,127.07
2023-02-06T14:38:07.775Z,132.27
2023-02-06T14:40:41.481Z,131.60
2023-02-06T14:43:16.310Z,132.20
2023-02-06T14:45:49.675Z,133.73
2023-02-06T14:48:27.600Z,129.80
2023-02-06T14:50:57.863Z,118.97
2023-02-06T14:53:27.643Z,110.68
2023-02-06T14:56:07.611Z,107.32
2023-02-06T14:58:36.102Z,106.63
2023-02-06T15:01:20.450Z,102.13
2023-02-06T15:03:49.982Z,99.47
2023-02-06T15:06:34.405Z,90.95
2023-02-06T15:09:02.746Z,90.25
2023-02-06T15:11:32.636Z,91.18
2023-02-06T15:14:03.301Z,89.70
2023-02-06T15:16:33.058Z,90.95
2023-02-06T15:19:12.203Z,90.25
2023-02-06T15:21:44.125Z,90.55
2023-02-06T15:24:24.493Z,88.55
2023-02-06T15:26:56.074Z,84.97
2023-02-06T15:29:26.778Z,89.70
2023-02-06T15:31:56.272Z,87.93
2023-02-06T15:34:25.659Z,90.18
2023-02-06T15:36:55.081Z,91.40
2023-02-06T15:39:23.123Z,92.72
2023-02-06T15:41:53.590Z,94.07
2023-02-06T15:44:27.021Z,95.57
2023-02-06T15:46:56.033Z,103.60
2023-02-06T15:49:35.902Z,111.60
2023-02-06T15:52:06.341Z,114.38
2023-02-06T15:54:34.464Z,113.15
2023-02-06T15:57:05.626Z,111.35
2023-02-06T15:59:36.078Z,111.22
2023-02-06T16:02:05.019Z,104.75
2023-02-06T16:04:35.091Z,112.28
2023-02-06T16:07:07.368Z,114.70
2023-02-06T16:09:41.136Z,112.43
2023-02-06T16:12:09.625Z,113.82
2023-02-06T16:14:39.366Z,109.20
2023-02-06T16:17:23.958Z,113.90
2023-02-06T16:19:54.720Z,110.22
2023-02-06T16:22:29.174Z,114.22
2023-02-06T16:25:14.544Z,116.38
2023-02-06T16:27:45.720Z,111.82
2023-02-06T16:30:23.532Z,114.32
2023-02-06T16:32:53.551Z,113.18
2023-02-06T16:35:22.795Z,109.68
2023-02-06T16:37:53.507Z,111.90
2023-02-06T16:40:21.615Z,115.32
2023-02-06T16:42:49.520Z,114.95
2023-02-06T16:45:19.738Z,114.25
2023-02-06T16:47:47.745Z,115.63
2023-02-06T16:50:16.113Z,115.30
2023-02-06T16:52:51.261Z,109.30
2023-02-06T16:55:23.427Z,114.63
2023-02-06T16:57:54.185Z,114.47
2023-02-06T17:00:25.522Z,112.15
2023-02-06T17:02:54.211Z,107.07
2023-02-06T17:05:23.651Z,107.35
2023-02-06T17:07:51.742Z,114.55
2023-02-06T17:10:23.460Z,108.10
2023-02-06T17:12:54.626Z,104.82
2023-02-06T17:15:22.622Z,105.03
2023-02-06T17:17:50.513Z,104.70
2023-02-06T17:20:25.894Z,111.70
2023-02-06T17:22:53.786Z,108.57
2023-02-06T17:25:23.001Z,112.43
2023-02-06T17:27:50.906Z,112.47
2023-02-06T17:30:20.713Z,112.65
2023-02-06T17:32:48.680Z,106.65
2023-02-06T17:35:17.112Z,111.65
2023-02-06T17:37:45.012Z,111.95
2023-02-06T17:40:18.839Z,110.75
2023-02-06T17:42:48.747Z,111.90
2023-02-06T17:45:16.863Z,111.55
2023-02-06T17:47:45.065Z,111.60
2023-02-06T17:50:15.477Z,110.18
2023-02-06T17:52:43.397Z,106.18
2023-02-06T17:55:11.513Z,107.95
2023-02-06T17:57:39.849Z,106.63
2023-02-06T18:00:14.165Z,104.97
2023-02-06T18:02:42.100Z,108.50
2023-02-06T18:05:10.399Z,106.20
2023-02-06T18:07:38.682Z,105.43
2023-02-06T18:10:07.604Z,111.93
2023-02-06T18:12:35.825Z,104.82
2023-02-06T18:15:03.878Z,107.10
2023-02-06T18:17:33.218Z,106.85
2023-02-06T18:20:01.397Z,108.47
2023-02-06T18:22:29.413Z,108.25
2023-02-06T18:24:57.444Z,108.63
2023-02-06T18:27:25.304Z,105.45
2023-02-06T18:29:55.146Z,105.40
2023-02-06T18:32:23.199Z,105.40
2023-02-06T18:34:52.411Z,105.18
2023-02-06T18:37:20.345Z,103.22
2023-02-06T18:39:48.260Z,104.63
2023-02-06T18:42:33.269Z,109.30
2023-02-06T18:45:03.249Z,109.70
2023-02-06T18:47:31.989Z,110.22
2023-02-06T18:50:01.242Z,111.15
2023-02-06T18:52:29.168Z,110.65
2023-02-06T18:54:57.026Z,110.82
2023-02-06T18:57:24.841Z,111.25
2023-02-06T18:59:52.780Z,111.60
2023-02-06T19:02:20.669Z,111.05
2023-02-06T19:04:48.639Z,111.20
2023-02-06T19:07:18.392Z,111.90
2023-02-06T19:09:46.338Z,105.80
2023-02-06T19:12:14.289Z,109.10
2023-02-06T19:14:42.236Z,109.07
2023-02-06T19:17:10.065Z,110.88
2023-02-06T19:19:37.960Z,110.80
2023-02-06T19:22:05.926Z,109.90
2023-02-06T19:24:35.200Z,103.95
2023-02-06T19:27:03.097Z,112.38
2023-02-06T19:29:36.002Z,110.90
2023-02-06T19:32:05.155Z,111.40
2023-02-06T19:34:35.982Z,111.55
2023-02-06T19:37:04.202Z,111.20
2023-02-06T19:39:34.157Z,110.70
2023-02-06T19:42:06.420Z,106.78
2023-02-06T19:44:34.684Z,111.07
2023-02-06T19:47:03.105Z,109.50
2023-02-06T19:49:31.617Z,109.13
2023-02-06T19:51:59.564Z,106.82
2023-02-06T19:54:27.608Z,106.18
2023-02-06T19:56:55.614Z,112.47
2023-02-06T19:59:28.348Z,109.07
2023-02-06T20:01:58.337Z,110.07
2023-02-06T20:04:30.195Z,111.55
2023-02-06T20:06:58.151Z,111.00
2023-02-06T20:09:27.015Z,108.72
2023-02-06T20:11:55.344Z,105.72
2023-02-06T20:14:25.423Z,108.75
2023-02-06T20:16:53.433Z,112.30
2023-02-06T20:19:24.269Z,110.65
2023-02-06T20:21:53.741Z,108.85
2023-02-06T20:24:23.928Z,113.82
2023-02-06T20:26:55.770Z,113.40
2023-02-06T20:29:27.616Z,110.95
2023-02-06T20:31:56.546Z,111.53
2023-02-06T20:34:24.935Z,111.18
2023-02-06T20:36:53.313Z,110.65
2023-02-06T20:39:21.385Z,111.05
2023-02-06T20:41:50.915Z,111.25
2023-02-06T20:44:20.014Z,109.25
2023-02-06T20:46:49.956Z,109.05
2023-02-06T20:49:19.637Z,112.72
2023-02-06T20:51:48.990Z,109.53
2023-02-06T20:54:17.113Z,111.65
2023-02-06T20:56:45.157Z,110.95
2023-02-06T20:59:14.274Z,112.35
2023-02-06T21:01:42.692Z,109.35
2023-02-06T21:04:13.536Z,111.13
2023-02-06T21:06:41.681Z,110.50
2023-02-06T21:09:10.175Z,111.25
2023-02-06T21:11:40.394Z,111.43
2023-02-06T21:14:08.717Z,110.30
2023-02-06T21:16:38.711Z,112.05
2023-02-06T21:19:07.799Z,110.88
2023-02-06T21:21:37.495Z,110.90
2023-02-06T21:24:06.265Z,110.82
2023-02-06T21:26:34.485Z,111.40
2023-02-06T21:29:03.391Z,111.20
2023-02-06T21:31:36.933Z,112.03
2023-02-06T21:34:08.986Z,110.18
2023-02-06T21:36:39.548Z,112.57
2023-02-06T21:39:07.847Z,111.30
2023-02-06T21:41:36.043Z,110.85
2023-02-06T21:44:04.460Z,105.78
2023-02-06T21:46:33.324Z,112.20
2023-02-06T21:49:01.204Z,108.07
2023-02-06T21:51:29.225Z,111.95
2023-02-06T21:53:58.830Z,113.15
2023-02-06T21:56:28.170Z,113.35
2023-02-06T21:58:56.245Z,115.60
2023-02-06T22:01:27.090Z,115.22
2023-02-06T23:40:49.191Z,113.25
2023-02-06T23:43:17.072Z,114.32
2023-02-06T23:45:45.077Z,108.20
2023-02-06T23:48:12.935Z,109.07
2023-02-06T23:50:40.850Z,112.90
2023-02-06T23:53:12.757Z,110.43
2023-02-06T23:55:41.074Z,112.63
2023-02-06T23:58:08.983Z,112.70
